createdAt,value
2017-11-19T00:00:17.701Z,1003.52
2017-11-19T00:01:17.724Z,1003.47
2017-11-19T00:02:17.741Z,1003.51
2017-11-19T00:03:17.740Z,1003.50
2017-11-19T00:04:17.758Z,1003.48
2017-11-19T00:05:17.765Z,1003.49
2017-11-19T00:06:17.781Z,1003.44
2017-11-19T00:07:17.797Z,1003.43
2017-11-19T00:08:17.814Z,1003.46
2017-11-19T00:09:17.820Z,1003.43
2017-11-19T00:10:17.837Z,1003.50
2017-11-19T00:11:17.846Z,1003.53
2017-11-19T00:12:17.857Z,1003.36
2017-11-19T00:13:17.875Z,1003.41
2017-11-19T00:14:17.886Z,1003.43
2017-11-19T00:15:17.893Z,1003.38
2017-11-19T00:16:17.916Z,1003.43
2017-11-19T00:17:17.925Z,1003.41
2017-11-19T00:18:17.929Z,1003.41
2017-11-19T00:19:17.960Z,1003.40
2017-11-19T00:20:17.959Z,1003.42
2017-11-19T00:21:17.978Z,1003.43
2017-11-19T00:22:18.010Z,1003.41
2017-11-19T00:23:18.000Z,1003.43
2017-11-19T00:24:18.014Z,1003.42
2017-11-19T00:25:18.036Z,1003.39
2017-11-19T00:26:18.041Z,1003.33
2017-11-19T00:27:18.050Z,1003.40
2017-11-19T00:28:18.055Z,1003.38
2017-11-19T00:29:18.080Z,1003.38
2017-11-19T00:30:18.093Z,1003.33
2017-11-19T00:31:18.109Z,1003.32
2017-11-19T00:32:18.123Z,1003.30
2017-11-19T00:33:18.129Z,1003.21
2017-11-19T00:34:18.153Z,1003.22
2017-11-19T00:35:18.159Z,1003.24
2017-11-19T00:36:18.163Z,1003.25
2017-11-19T00:37:18.194Z,1003.20
2017-11-19T00:38:18.209Z,1003.25
2017-11-19T00:39:18.203Z,1003.18
2017-11-19T00:40:18.226Z,1003.24
2017-11-19T00:41:18.239Z,1003.23
2017-11-19T00:42:18.243Z,1003.15
2017-11-19T00:43:18.272Z,1003.17
2017-11-19T00:44:18.270Z,1003.13
2017-11-19T00:45:18.285Z,1003.12
2017-11-19T00:46:18.309Z,1003.18
2017-11-19T00:47:18.309Z,1003.11
2017-11-19T00:48:18.327Z,1003.09
2017-11-19T00:49:18.351Z,1003.13
2017-11-19T00:50:18.358Z,1003.08
2017-11-19T00:51:18.365Z,1003.05
2017-11-19T00:52:18.382Z,1003.06
2017-11-19T00:53:18.392Z,1003.12
2017-11-19T00:54:18.404Z,1003.07
2017-11-19T00:55:18.426Z,1003.02
2017-11-19T00:56:18.436Z,1003.10
2017-11-19T00:57:18.447Z,1003.17
2017-11-19T00:58:18.461Z,1003.10
2017-11-19T00:59:18.475Z,1003.19
2017-11-19T01:00:18.490Z,1003.13
2017-11-19T01:01:18.502Z,1003.09
2017-11-19T01:02:18.515Z,1003.06
2017-11-19T01:03:18.519Z,1003.10
2017-11-19T01:04:18.543Z,1003.07
2017-11-19T01:05:18.590Z,1003.07
2017-11-19T01:06:18.557Z,1003.10
2017-11-19T01:07:18.583Z,1003.06
2017-11-19T01:08:18.590Z,1003.06
2017-11-19T01:09:18.599Z,1003.02
2017-11-19T01:10:18.625Z,1002.98
2017-11-19T01:11:18.877Z,1003.01
2017-11-19T01:12:18.639Z,1003.00
2017-11-19T01:13:18.663Z,1003.01
2017-11-19T01:14:18.678Z,1002.98
2017-11-19T01:15:18.676Z,1002.98
2017-11-19T01:16:18.682Z,1002.97
2017-11-19T01:17:18.702Z,1002.88
2017-11-19T01:18:18.742Z,1002.89
2017-11-19T01:19:18.721Z,1002.85
2017-11-19T01:20:18.744Z,1002.84
2017-11-19T01:21:18.757Z,1002.78
2017-11-19T01:22:18.760Z,1002.77
2017-11-19T01:23:18.790Z,1002.75
2017-11-19T01:24:18.793Z,1002.79
2017-11-19T01:25:18.800Z,1002.74
2017-11-19T01:26:18.826Z,1002.74
2017-11-19T01:27:18.832Z,1002.69
2017-11-19T01:28:18.840Z,1002.68
2017-11-19T01:29:18.851Z,1002.65
2017-11-19T01:30:18.869Z,1002.71
2017-11-19T01:31:18.885Z,1002.65
2017-11-19T01:32:18.892Z,1002.68
2017-11-19T01:33:18.912Z,1002.66
2017-11-19T01:34:18.923Z,1002.63
2017-11-19T01:35:18.931Z,1002.60
2017-11-19T01:36:18.937Z,1002.60
2017-11-19T01:37:18.958Z,1002.57
2017-11-19T01:38:18.972Z,1002.57
2017-11-19T01:39:18.974Z,1002.52
2017-11-19T01:40:18.988Z,1002.53
2017-11-19T01:41:19.012Z,1002.54
2017-11-19T01:42:19.015Z,1002.54
2017-11-19T01:43:19.028Z,1002.53
2017-11-19T01:44:19.048Z,1002.53
2017-11-19T01:45:19.061Z,1002.46
2017-11-19T01:46:19.069Z,1002.43
2017-11-19T01:47:19.071Z,1002.50
2017-11-19T01:48:19.114Z,1002.42
2017-11-19T01:49:19.106Z,1002.40
2017-11-19T01:50:19.109Z,1002.38
2017-11-19T01:51:19.135Z,1002.36
2017-11-19T01:52:19.142Z,1002.42
2017-11-19T01:53:19.147Z,1002.38
2017-11-19T01:54:19.166Z,1002.36
2017-11-19T01:55:19.179Z,1002.29
2017-11-19T01:56:19.189Z,1002.28
2017-11-19T01:57:19.203Z,1002.33
2017-11-19T01:58:19.203Z,1002.30
2017-11-19T01:59:19.243Z,1002.23
2017-11-19T02:00:19.238Z,1002.22
2017-11-19T02:01:19.247Z,1002.19
2017-11-19T02:02:19.271Z,1002.27
2017-11-19T02:03:19.284Z,1002.22
2017-11-19T02:04:19.287Z,1002.22
2017-11-19T02:05:19.299Z,1002.27
2017-11-19T02:06:19.570Z,1002.22
2017-11-19T02:07:19.325Z,1002.17
2017-11-19T02:08:19.330Z,1002.24
2017-11-19T02:09:19.344Z,1002.23
2017-11-19T02:10:19.368Z,1002.21
2017-11-19T02:11:19.371Z,1002.23
2017-11-19T02:12:19.386Z,1002.23
2017-11-19T02:13:19.405Z,1002.19
2017-11-19T02:14:19.412Z,1002.21
2017-11-19T02:15:19.432Z,1002.13
2017-11-19T02:16:19.425Z,1002.08
2017-11-19T02:17:19.450Z,1002.17
2017-11-19T02:18:19.460Z,1002.19
2017-11-19T02:19:19.467Z,1002.20
2017-11-19T02:20:19.492Z,1002.15
2017-11-19T02:21:19.503Z,1002.21
2017-11-19T02:22:19.511Z,1002.23
2017-11-19T02:23:19.521Z,1002.24
2017-11-19T02:24:19.539Z,1002.19
2017-11-19T02:25:19.549Z,1002.17
2017-11-19T02:26:19.562Z,1002.19
2017-11-19T02:27:19.566Z,1002.19
2017-11-19T02:28:19.591Z,1002.20
2017-11-19T02:29:19.594Z,1002.19
2017-11-19T02:30:19.605Z,1002.25
2017-11-19T02:31:19.623Z,1002.19
2017-11-19T02:32:19.639Z,1002.23
2017-11-19T02:33:19.642Z,1002.17
2017-11-19T02:34:19.654Z,1002.18
2017-11-19T02:35:19.677Z,1002.18
2017-11-19T02:36:19.687Z,1002.21
2017-11-19T02:37:19.697Z,1002.15
2017-11-19T02:38:19.696Z,1002.20
2017-11-19T02:39:19.731Z,1002.14
2017-11-19T02:40:19.732Z,1002.14
2017-11-19T02:41:19.737Z,1002.12
2017-11-19T02:42:19.768Z,1002.11
2017-11-19T02:43:19.773Z,1002.10
2017-11-19T02:44:19.782Z,1002.05
2017-11-19T02:45:19.788Z,1001.99
2017-11-19T02:46:20.057Z,1002.04
2017-11-19T02:47:19.822Z,1002.05
2017-11-19T02:48:19.841Z,1002.02
2017-11-19T02:49:19.851Z,1002.00
2017-11-19T02:50:19.859Z,1002.01
2017-11-19T02:51:19.862Z,1002.06
2017-11-19T02:52:19.878Z,1002.06
2017-11-19T02:53:19.901Z,1001.95
2017-11-19T02:54:19.904Z,1001.95
2017-11-19T02:55:19.913Z,1001.97
2017-11-19T02:56:19.935Z,1001.88
2017-11-19T02:57:19.949Z,1001.83
2017-11-19T02:58:19.957Z,1001.85
2017-11-19T02:59:19.975Z,1001.83
2017-11-19T03:00:20.004Z,1001.81
2017-11-19T03:01:19.995Z,1001.81
2017-11-19T03:02:20.003Z,1001.80
2017-11-19T03:03:20.027Z,1001.84
2017-11-19T03:04:20.027Z,1001.82
2017-11-19T03:05:20.036Z,1001.82
2017-11-19T03:06:20.061Z,1001.86
2017-11-19T03:07:20.070Z,1001.78
2017-11-19T03:08:20.080Z,1001.81
2017-11-19T03:09:20.093Z,1001.79
2017-11-19T03:10:20.115Z,1001.79
2017-11-19T03:11:20.423Z,1001.78
2017-11-19T03:12:20.124Z,1001.79
2017-11-19T03:13:20.150Z,1001.73
2017-11-19T03:14:20.160Z,1001.70
2017-11-19T03:15:20.161Z,1001.59
2017-11-19T03:16:20.182Z,1001.65
2017-11-19T03:17:20.196Z,1001.63
2017-11-19T03:18:20.209Z,1001.69
2017-11-19T03:19:20.255Z,1001.66
2017-11-19T03:20:20.234Z,1001.61
2017-11-19T03:21:20.501Z,1001.58
2017-11-19T03:22:20.257Z,1001.57
2017-11-19T03:23:20.272Z,1001.62
2017-11-19T03:24:20.285Z,1001.64
2017-11-19T03:25:20.292Z,1001.61
2017-11-19T03:26:20.302Z,1001.55
2017-11-19T03:27:20.323Z,1001.57
2017-11-19T03:28:20.332Z,1001.61
2017-11-19T03:29:20.337Z,1001.62
2017-11-19T03:30:20.370Z,1001.58
2017-11-19T03:31:20.371Z,1001.60
2017-11-19T03:32:20.384Z,1001.60
2017-11-19T03:33:20.397Z,1001.62
2017-11-19T03:34:20.409Z,1001.56
2017-11-19T03:35:20.419Z,1001.59
2017-11-19T03:36:20.423Z,1001.61
2017-11-19T03:37:20.434Z,1001.63
2017-11-19T03:38:20.457Z,1001.54
2017-11-19T03:39:20.465Z,1001.55
2017-11-19T03:40:20.480Z,1001.60
2017-11-19T03:41:20.753Z,1001.58
2017-11-19T03:42:20.504Z,1001.57
2017-11-19T03:43:20.513Z,1001.60
2017-11-19T03:44:20.527Z,1001.57
2017-11-19T03:45:20.563Z,1001.54
2017-11-19T03:46:20.561Z,1001.55
2017-11-19T03:47:20.565Z,1001.52
2017-11-19T03:48:20.579Z,1001.58
2017-11-19T03:49:20.588Z,1001.54
2017-11-19T03:50:20.604Z,1001.52
2017-11-19T03:51:20.613Z,1001.52
2017-11-19T03:52:20.634Z,1001.53
2017-11-19T03:53:20.646Z,1001.53
2017-11-19T03:54:20.648Z,1001.47
2017-11-19T03:55:20.661Z,1001.50
2017-11-19T03:56:20.676Z,1001.51
2017-11-19T03:57:20.689Z,1001.45
2017-11-19T03:58:20.698Z,1001.47
2017-11-19T03:59:20.716Z,1001.45
2017-11-19T04:00:20.738Z,1001.45
2017-11-19T04:01:20.736Z,1001.43
2017-11-19T04:02:20.743Z,1001.36
2017-11-19T04:03:20.777Z,1001.43
2017-11-19T04:04:20.811Z,1001.36
2017-11-19T04:05:20.783Z,1001.39
2017-11-19T04:06:20.809Z,1001.44
2017-11-19T04:07:20.811Z,1001.41
2017-11-19T04:08:20.835Z,1001.35
2017-11-19T04:09:20.833Z,1001.35
2017-11-19T04:10:20.855Z,1001.34
2017-11-19T04:11:20.866Z,1001.40
2017-11-19T04:12:20.872Z,1001.34
2017-11-19T04:13:20.885Z,1001.41
2017-11-19T04:14:20.908Z,1001.32
2017-11-19T04:15:20.909Z,1001.36
2017-11-19T04:16:20.936Z,1001.24
2017-11-19T04:17:20.946Z,1001.37
2017-11-19T04:18:20.953Z,1001.34
2017-11-19T04:19:20.960Z,1001.35
2017-11-19T04:20:20.968Z,1001.22
2017-11-19T04:21:20.986Z,1001.24
2017-11-19T04:22:21.003Z,1001.29
2017-11-19T04:23:21.006Z,1001.33
2017-11-19T04:24:21.031Z,1001.22
2017-11-19T04:25:21.042Z,1001.33
2017-11-19T04:26:21.061Z,1001.24
2017-11-19T04:27:21.062Z,1001.27
2017-11-19T04:28:21.073Z,1001.25
2017-11-19T04:29:21.095Z,1001.28
2017-11-19T04:30:21.098Z,1001.25
2017-11-19T04:31:21.106Z,1001.28
2017-11-19T04:32:21.123Z,1001.30
2017-11-19T04:33:21.146Z,1001.29
2017-11-19T04:34:21.140Z,1001.18
2017-11-19T04:35:21.168Z,1001.24
2017-11-19T04:36:21.171Z,1001.20
2017-11-19T04:37:21.180Z,1001.14
2017-11-19T04:38:21.197Z,1001.16
2017-11-19T04:39:21.214Z,1001.10
2017-11-19T04:40:21.225Z,1001.08
2017-11-19T04:41:21.233Z,1001.00
2017-11-19T04:42:21.236Z,1001.04
2017-11-19T04:43:21.263Z,1001.01
2017-11-19T04:44:21.271Z,1000.99
2017-11-19T04:45:21.276Z,1001.05
2017-11-19T04:46:21.291Z,1000.99
2017-11-19T04:47:21.303Z,1000.99
2017-11-19T04:48:21.317Z,1001.01
2017-11-19T04:49:21.333Z,1001.01
2017-11-19T04:50:21.332Z,1001.01
2017-11-19T04:51:21.358Z,1000.97
2017-11-19T04:52:21.363Z,1000.98
2017-11-19T04:53:21.373Z,1000.97
2017-11-19T04:54:21.402Z,1000.92
2017-11-19T04:55:21.401Z,1000.97
2017-11-19T04:56:21.415Z,1000.98
2017-11-19T04:57:21.433Z,1000.93
2017-11-19T04:58:21.443Z,1000.97
2017-11-19T04:59:21.456Z,1000.96
2017-11-19T05:00:21.462Z,1000.89
2017-11-19T05:01:21.469Z,1000.90
2017-11-19T05:02:21.497Z,1000.89
2017-11-19T05:03:21.500Z,1000.91
2017-11-19T05:04:21.514Z,1000.93
2017-11-19T05:05:21.522Z,1000.85
2017-11-19T05:06:21.792Z,1000.90
2017-11-19T05:07:21.553Z,1001.00
2017-11-19T05:08:21.558Z,1000.83
2017-11-19T05:09:21.562Z,1000.92
2017-11-19T05:10:21.592Z,1000.77
2017-11-19T05:11:21.594Z,1000.86
2017-11-19T05:12:21.610Z,1000.88
2017-11-19T05:13:21.619Z,1000.82
2017-11-19T05:14:21.637Z,1000.82
2017-11-19T05:15:21.649Z,1000.79
2017-11-19T05:16:21.653Z,1000.70
2017-11-19T05:17:21.660Z,1000.78
2017-11-19T05:18:21.682Z,1000.81
2017-11-19T05:19:21.690Z,1000.74
2017-11-19T05:20:21.707Z,1000.69
2017-11-19T05:21:22.024Z,1000.70
2017-11-19T05:22:21.734Z,1000.64
2017-11-19T05:23:21.749Z,1000.68
2017-11-19T05:24:21.748Z,1000.55
2017-11-19T05:25:21.772Z,1000.59
2017-11-19T05:26:21.782Z,1000.51
2017-11-19T05:27:21.785Z,1000.48
2017-11-19T05:28:21.825Z,1000.43
2017-11-19T05:29:21.820Z,1000.49
2017-11-19T05:30:21.826Z,1000.44
2017-11-19T05:31:21.842Z,1000.48
2017-11-19T05:32:21.846Z,1000.50
2017-11-19T05:33:21.868Z,1000.49
2017-11-19T05:34:21.879Z,1000.43
2017-11-19T05:35:21.884Z,1000.45
2017-11-19T05:36:21.909Z,1000.42
2017-11-19T05:37:21.918Z,1000.37
2017-11-19T05:38:21.922Z,1000.42
2017-11-19T05:39:21.932Z,1000.44
2017-11-19T05:40:21.963Z,1000.45
2017-11-19T05:41:22.209Z,1000.49
2017-11-19T05:42:21.977Z,1000.44
2017-11-19T05:43:21.980Z,1000.50
2017-11-19T05:44:22.004Z,1000.51
2017-11-19T05:45:22.018Z,1000.54
2017-11-19T05:46:22.018Z,1000.56
2017-11-19T05:47:22.042Z,1000.59
2017-11-19T05:48:22.050Z,1000.51
2017-11-19T05:49:22.059Z,1000.47
2017-11-19T05:50:22.068Z,1000.47
2017-11-19T05:51:22.088Z,1000.49
2017-11-19T05:52:22.098Z,1000.49
2017-11-19T05:53:22.102Z,1000.49
2017-11-19T05:54:22.115Z,1000.47
2017-11-19T05:55:22.136Z,1000.53
2017-11-19T05:56:22.155Z,1000.50
2017-11-19T05:57:22.158Z,1000.54
2017-11-19T05:58:22.164Z,1000.54
2017-11-19T05:59:22.186Z,1000.55
2017-11-19T06:00:22.196Z,1000.54
2017-11-19T06:01:22.204Z,1000.52
2017-11-19T06:02:22.228Z,1000.53
2017-11-19T06:03:22.233Z,1000.47
2017-11-19T06:04:22.248Z,1000.52
2017-11-19T06:05:22.257Z,1000.46
2017-11-19T06:06:22.271Z,1000.43
2017-11-19T06:07:22.284Z,1000.45
2017-11-19T06:08:22.288Z,1000.48
2017-11-19T06:09:22.311Z,1000.45
2017-11-19T06:10:22.322Z,1000.46
2017-11-19T06:11:22.325Z,1000.51
2017-11-19T06:12:22.339Z,1000.44
2017-11-19T06:13:22.359Z,1000.47
2017-11-19T06:14:22.366Z,1000.43
2017-11-19T06:15:22.384Z,1000.38
2017-11-19T06:16:22.396Z,1000.42
2017-11-19T06:17:22.408Z,1000.35
2017-11-19T06:18:22.421Z,1000.34
2017-11-19T06:19:22.423Z,1000.37
2017-11-19T06:20:22.447Z,1000.46
2017-11-19T06:21:22.475Z,1000.39
2017-11-19T06:22:22.463Z,1000.35
2017-11-19T06:23:22.490Z,1000.41
2017-11-19T06:24:22.496Z,1000.40
2017-11-19T06:25:22.503Z,1000.46
2017-11-19T06:26:22.526Z,1000.42
2017-11-19T06:27:22.532Z,1000.45
2017-11-19T06:28:22.546Z,1000.45
2017-11-19T06:29:22.553Z,1000.40
2017-11-19T06:30:22.574Z,1000.33
2017-11-19T06:31:22.585Z,1000.38
2017-11-19T06:32:22.594Z,1000.37
2017-11-19T06:33:22.598Z,1000.32
2017-11-19T06:34:22.627Z,1000.24
2017-11-19T06:35:22.632Z,1000.23
2017-11-19T06:36:22.642Z,1000.30
2017-11-19T06:37:22.665Z,1000.32
2017-11-19T06:38:22.668Z,1000.30
2017-11-19T06:39:22.683Z,1000.26
2017-11-19T06:40:22.696Z,1000.32
2017-11-19T06:41:22.959Z,1000.28
2017-11-19T06:42:22.722Z,1000.30
2017-11-19T06:43:22.725Z,1000.32
2017-11-19T06:44:22.752Z,1000.19
2017-11-19T06:45:22.762Z,1000.18
2017-11-19T06:46:22.766Z,1000.27
2017-11-19T06:47:22.793Z,1000.26
2017-11-19T06:48:22.798Z,1000.30
2017-11-19T06:49:22.805Z,1000.31
2017-11-19T06:50:22.830Z,1000.32
2017-11-19T06:51:22.831Z,1000.42
2017-11-19T06:52:22.845Z,1000.39
2017-11-19T06:53:22.868Z,1000.38
2017-11-19T06:54:22.870Z,1000.40
2017-11-19T06:55:22.887Z,1000.36
2017-11-19T06:56:22.892Z,1000.38
2017-11-19T06:57:22.914Z,1000.33
2017-11-19T06:58:22.924Z,1000.36
2017-11-19T06:59:22.927Z,1000.25
2017-11-19T07:00:22.958Z,1000.37
2017-11-19T07:01:22.966Z,1000.44
2017-11-19T07:02:22.971Z,1000.32
2017-11-19T07:03:22.995Z,1000.29
2017-11-19T07:04:22.999Z,1000.35
2017-11-19T07:05:23.016Z,1000.43
2017-11-19T07:06:23.033Z,1000.32
2017-11-19T07:07:23.039Z,1000.42
2017-11-19T07:08:23.053Z,1000.34
2017-11-19T07:09:23.071Z,1000.42
2017-11-19T07:10:23.086Z,1000.39
2017-11-19T07:11:23.087Z,1000.36
2017-11-19T07:12:23.093Z,1000.38
2017-11-19T07:13:23.117Z,1000.40
2017-11-19T07:14:23.127Z,1000.39
2017-11-19T07:15:23.135Z,1000.45
2017-11-19T07:16:23.159Z,1000.34
2017-11-19T07:17:23.172Z,1000.40
2017-11-19T07:18:23.175Z,1000.34
2017-11-19T07:19:23.198Z,1000.40
2017-11-19T07:20:23.206Z,1000.38
2017-11-19T07:21:23.494Z,1000.38
2017-11-19T07:22:23.236Z,1000.28
2017-11-19T07:23:23.245Z,1000.28
2017-11-19T07:24:23.256Z,1000.23
2017-11-19T07:25:23.279Z,1000.29
2017-11-19T07:26:23.280Z,1000.35
2017-11-19T07:27:23.297Z,1000.33
2017-11-19T07:28:23.313Z,1000.35
2017-11-19T07:29:23.321Z,1000.34
2017-11-19T07:30:23.349Z,1000.30
2017-11-19T07:31:23.353Z,1000.23
2017-11-19T07:32:23.373Z,1000.37
2017-11-19T07:33:23.382Z,1000.31
2017-11-19T07:34:23.390Z,1000.31
2017-11-19T07:35:23.402Z,1000.31
2017-11-19T07:36:23.423Z,1000.30
2017-11-19T07:37:23.431Z,1000.28
2017-11-19T07:38:23.442Z,1000.28
2017-11-19T07:39:23.457Z,1000.20
2017-11-19T07:40:23.470Z,1000.23
2017-11-19T07:41:23.485Z,1000.26
2017-11-19T07:42:23.515Z,1000.23
2017-11-19T07:43:23.509Z,1000.19
2017-11-19T07:44:23.518Z,1000.21
2017-11-19T07:45:23.535Z,1000.21
2017-11-19T07:46:23.561Z,1000.28
2017-11-19T07:47:23.566Z,1000.32
2017-11-19T07:48:23.584Z,1000.19
2017-11-19T07:49:23.604Z,1000.21
2017-11-19T07:50:23.610Z,1000.21
2017-11-19T07:51:23.618Z,1000.13
2017-11-19T07:52:23.628Z,1000.07
2017-11-19T07:53:23.643Z,1000.07
2017-11-19T07:54:23.656Z,1000.08
2017-11-19T07:55:23.680Z,999.97
2017-11-19T07:56:23.698Z,999.95
2017-11-19T07:57:23.700Z,999.96
2017-11-19T07:58:23.719Z,999.94
2017-11-19T07:59:23.724Z,999.97
2017-11-19T08:00:23.751Z,999.90
2017-11-19T08:01:23.759Z,999.93
2017-11-19T08:02:23.764Z,999.99
2017-11-19T08:03:23.793Z,999.98
2017-11-19T08:04:23.791Z,999.96
2017-11-19T08:05:23.814Z,1000.03
2017-11-19T08:06:23.825Z,1000.02
2017-11-19T08:07:23.847Z,999.97
2017-11-19T08:08:23.861Z,1000.02
2017-11-19T08:09:23.868Z,1000.09
2017-11-19T08:10:23.885Z,1000.07
2017-11-19T08:11:23.901Z,1000.10
2017-11-19T08:12:23.905Z,1000.11
2017-11-19T08:13:23.939Z,1000.20
2017-11-19T08:14:23.938Z,1000.14
2017-11-19T08:15:23.956Z,1000.19
2017-11-19T08:16:23.965Z,1000.18
2017-11-19T08:17:23.985Z,1000.24
2017-11-19T08:18:23.991Z,1000.20
2017-11-19T08:19:24.008Z,1000.27
2017-11-19T08:20:24.025Z,1000.22
2017-11-19T08:21:24.032Z,1000.08
2017-11-19T08:22:24.063Z,1000.21
2017-11-19T08:23:24.060Z,1000.16
2017-11-19T08:24:24.087Z,1000.13
2017-11-19T08:25:24.101Z,1000.15
2017-11-19T08:26:24.122Z,1000.16
2017-11-19T08:27:24.127Z,1000.14
2017-11-19T08:28:24.131Z,1000.09
2017-11-19T08:29:24.156Z,1000.02
2017-11-19T08:30:24.170Z,1000.07
2017-11-19T08:31:24.185Z,1000.23
2017-11-19T08:32:24.206Z,1000.08
2017-11-19T08:33:24.220Z,1000.11
2017-11-19T08:34:24.224Z,1000.22
2017-11-19T08:35:24.261Z,1000.13
2017-11-19T08:36:24.256Z,1000.19
2017-11-19T08:37:24.272Z,1000.20
2017-11-19T08:38:24.292Z,1000.18
2017-11-19T08:39:24.317Z,1000.14
2017-11-19T08:40:24.319Z,1000.06
2017-11-19T08:41:24.581Z,1000.09
2017-11-19T08:42:24.345Z,1000.12
2017-11-19T08:43:24.359Z,1000.11
2017-11-19T08:44:24.372Z,1000.16
2017-11-19T08:45:24.381Z,1000.10
2017-11-19T08:46:24.413Z,1000.11
2017-11-19T08:47:24.414Z,1000.14
2017-11-19T08:48:24.438Z,1000.06
2017-11-19T08:49:24.449Z,1000.11
2017-11-19T08:50:24.468Z,1000.07
2017-11-19T08:51:24.481Z,999.95
2017-11-19T08:52:24.497Z,999.83
2017-11-19T08:53:24.503Z,1000.09
2017-11-19T08:54:24.530Z,1000.09
2017-11-19T08:55:24.531Z,1000.10
2017-11-19T08:56:24.559Z,1000.10
2017-11-19T08:57:24.569Z,1000.02
2017-11-19T08:58:24.601Z,1000.08
2017-11-19T08:59:24.601Z,1000.04
2017-11-19T09:00:24.616Z,1000.11
2017-11-19T09:01:24.625Z,1000.02
2017-11-19T09:02:24.651Z,1000.06
2017-11-19T09:03:24.654Z,1000.05
2017-11-19T09:04:24.670Z,999.96
2017-11-19T09:05:24.691Z,1000.05
2017-11-19T09:06:24.698Z,999.98
2017-11-19T09:07:24.721Z,999.93
2017-11-19T09:08:24.725Z,1000.00
2017-11-19T09:09:24.750Z,999.87
2017-11-19T09:10:24.760Z,999.94
2017-11-19T09:11:24.776Z,999.94
2017-11-19T09:12:24.786Z,999.94
2017-11-19T09:13:24.807Z,1000.00
2017-11-19T09:14:24.820Z,1000.02
2017-11-19T09:15:24.839Z,1000.06
2017-11-19T09:16:24.844Z,1000.04
2017-11-19T09:17:24.870Z,999.93
2017-11-19T09:18:24.881Z,1000.05
2017-11-19T09:19:24.900Z,1000.07
2017-11-19T09:20:24.925Z,1000.15
2017-11-19T09:21:24.935Z,1000.11
2017-11-19T09:22:24.939Z,1000.07
2017-11-19T09:23:24.961Z,1000.26
2017-11-19T09:24:24.970Z,1000.11
2017-11-19T09:25:24.988Z,1000.05
2017-11-19T09:26:25.004Z,1000.07
2017-11-19T09:27:25.018Z,1000.06
2017-11-19T09:28:25.031Z,1000.17
2017-11-19T09:29:25.056Z,1000.08
2017-11-19T09:30:25.058Z,1000.04
2017-11-19T09:31:25.080Z,1000.09
2017-11-19T09:32:25.084Z,1000.04
2017-11-19T09:33:25.110Z,1000.06
2017-11-19T09:34:25.121Z,1000.15
2017-11-19T09:35:25.139Z,1000.11
2017-11-19T09:36:25.150Z,1000.16
2017-11-19T09:37:25.171Z,1000.09
2017-11-19T09:38:25.176Z,1000.15
2017-11-19T09:39:25.206Z,1000.06
2017-11-19T09:40:25.219Z,1000.08
2017-11-19T09:41:25.480Z,1000.16
2017-11-19T09:42:25.246Z,1000.10
2017-11-19T09:43:25.258Z,1000.07
2017-11-19T09:44:25.274Z,1000.12
2017-11-19T09:45:25.296Z,1000.03
2017-11-19T09:46:25.298Z,999.98
2017-11-19T09:47:25.333Z,1000.01
2017-11-19T09:48:25.333Z,1000.06
2017-11-19T09:49:25.352Z,1000.15
2017-11-19T09:50:25.363Z,1000.00
2017-11-19T09:51:25.384Z,999.88
2017-11-19T09:52:25.398Z,999.89
2017-11-19T09:53:25.416Z,1000.02
2017-11-19T09:54:25.424Z,1000.01
2017-11-19T09:55:25.443Z,999.92
2017-11-19T09:56:25.448Z,1000.02
2017-11-19T09:57:25.476Z,1000.01
2017-11-19T09:58:25.482Z,999.99
2017-11-19T09:59:25.503Z,999.91
2017-11-19T10:00:25.515Z,999.97
2017-11-19T10:01:25.536Z,999.98
2017-11-19T10:02:25.542Z,999.97
2017-11-19T10:03:25.565Z,1000.08
2017-11-19T10:04:25.573Z,999.99
2017-11-19T10:05:25.601Z,999.97
2017-11-19T10:06:25.604Z,1000.03
2017-11-19T10:07:25.611Z,1000.04
2017-11-19T10:08:25.637Z,1000.09
2017-11-19T10:09:25.643Z,1000.05
2017-11-19T10:10:25.660Z,999.96
2017-11-19T10:11:25.677Z,1000.07
2017-11-19T10:12:25.710Z,1000.02
2017-11-19T10:13:25.702Z,999.98
2017-11-19T10:14:25.727Z,1000.03
2017-11-19T10:15:25.733Z,1000.01
2017-11-19T10:16:25.755Z,1000.01
2017-11-19T10:17:25.769Z,999.99
2017-11-19T10:18:25.787Z,999.95
2017-11-19T10:19:25.821Z,999.92
2017-11-19T10:20:25.815Z,999.98
2017-11-19T10:21:25.830Z,999.90
2017-11-19T10:22:25.848Z,999.89
2017-11-19T10:23:25.855Z,999.89
2017-11-19T10:24:25.880Z,999.88
2017-11-19T10:25:25.886Z,999.90
2017-11-19T10:26:25.895Z,999.85
2017-11-19T10:27:25.928Z,999.87
2017-11-19T10:28:25.924Z,999.95
2017-11-19T10:29:25.947Z,999.92
2017-11-19T10:30:25.954Z,999.95
2017-11-19T10:31:25.977Z,999.97
2017-11-19T10:32:25.987Z,999.95
2017-11-19T10:33:26.009Z,999.92
2017-11-19T10:34:26.013Z,999.83
2017-11-19T10:35:26.039Z,999.82
2017-11-19T10:36:26.046Z,999.74
2017-11-19T10:37:26.065Z,999.86
2017-11-19T10:38:26.079Z,999.84
2017-11-19T10:39:26.093Z,999.88
2017-11-19T10:40:26.108Z,999.78
2017-11-19T10:41:26.131Z,999.80
2017-11-19T10:42:26.134Z,999.87
2017-11-19T10:43:26.161Z,999.88
2017-11-19T10:44:26.166Z,999.76
2017-11-19T10:45:26.175Z,999.85
2017-11-19T10:46:26.203Z,999.75
2017-11-19T10:47:26.213Z,999.79
2017-11-19T10:48:26.226Z,999.78
2017-11-19T10:49:26.255Z,999.76
2017-11-19T10:50:26.251Z,999.68
2017-11-19T10:51:26.268Z,999.77
2017-11-19T10:52:26.285Z,999.72
2017-11-19T10:53:26.294Z,999.72
2017-11-19T10:54:26.319Z,999.71
2017-11-19T10:55:26.324Z,999.70
2017-11-19T10:56:26.350Z,999.74
2017-11-19T10:57:26.360Z,999.72
2017-11-19T10:58:26.377Z,999.84
2017-11-19T10:59:26.412Z,999.75
2017-11-19T11:00:26.409Z,999.69
2017-11-19T11:01:26.412Z,999.66
2017-11-19T11:02:26.439Z,999.48
2017-11-19T11:03:26.446Z,999.61
2017-11-19T11:04:26.475Z,999.60
2017-11-19T11:05:26.481Z,999.56
2017-11-19T11:06:26.501Z,999.60
2017-11-19T11:07:26.510Z,999.50
2017-11-19T11:08:26.528Z,999.74
2017-11-19T11:09:26.539Z,999.76
2017-11-19T11:10:26.560Z,999.66
2017-11-19T11:11:26.568Z,999.60
2017-11-19T11:12:26.595Z,999.62
2017-11-19T11:13:26.602Z,999.61
2017-11-19T11:14:26.617Z,999.65
2017-11-19T11:15:26.633Z,999.75
2017-11-19T11:16:26.646Z,999.75
2017-11-19T11:17:26.658Z,999.74
2017-11-19T11:18:26.685Z,999.86
2017-11-19T11:19:26.688Z,999.80
2017-11-19T11:20:26.726Z,999.93
2017-11-19T11:21:26.723Z,999.96
2017-11-19T11:22:26.742Z,999.85
2017-11-19T11:23:26.753Z,999.75
2017-11-19T11:24:26.771Z,999.82
2017-11-19T11:25:26.776Z,999.88
2017-11-19T11:26:26.807Z,999.90
2017-11-19T11:27:26.806Z,999.81
2017-11-19T11:28:26.837Z,999.70
2017-11-19T11:29:26.840Z,999.68
2017-11-19T11:30:26.858Z,999.66
2017-11-19T11:31:26.874Z,999.68
2017-11-19T11:32:26.894Z,999.68
2017-11-19T11:33:26.899Z,999.80
2017-11-19T11:34:26.927Z,999.81
2017-11-19T11:35:26.928Z,999.70
2017-11-19T11:36:26.958Z,999.71
2017-11-19T11:37:26.962Z,999.69
2017-11-19T11:38:26.982Z,999.70
2017-11-19T11:39:26.996Z,999.66
2017-11-19T11:40:27.011Z,999.55
2017-11-19T11:41:27.023Z,999.55
2017-11-19T11:42:27.048Z,999.58
2017-11-19T11:43:27.066Z,999.69
2017-11-19T11:44:27.077Z,999.71
2017-11-19T11:45:27.101Z,999.72
2017-11-19T11:46:27.106Z,999.69
2017-11-19T11:47:27.129Z,999.66
2017-11-19T11:48:27.130Z,999.61
2017-11-19T11:49:27.152Z,999.54
2017-11-19T11:50:27.179Z,999.49
2017-11-19T11:51:27.185Z,999.43
2017-11-19T11:52:27.210Z,999.48
2017-11-19T11:53:27.219Z,999.28
2017-11-19T11:54:27.238Z,999.57
2017-11-19T11:55:27.248Z,999.49
2017-11-19T11:56:27.268Z,999.49
2017-11-19T11:57:27.289Z,999.44
2017-11-19T11:58:27.303Z,999.59
2017-11-19T11:59:27.317Z,999.57
2017-11-19T12:00:27.334Z,999.39
2017-11-19T12:01:27.350Z,999.34
2017-11-19T12:02:27.373Z,999.38
2017-11-19T12:03:27.386Z,999.34
2017-11-19T12:04:27.402Z,999.42
2017-11-19T12:05:27.410Z,999.55
2017-11-19T12:06:27.433Z,999.50
2017-11-19T12:07:27.439Z,999.57
2017-11-19T12:08:27.469Z,999.53
2017-11-19T12:09:27.490Z,999.52
2017-11-19T12:10:27.489Z,999.48